createdAt,value
2023-02-17T00:01:10.901Z,49.03
2023-02-17T00:03:14.104Z,51.30
2023-02-17T00:05:17.428Z,51.25
2023-02-17T00:07:20.779Z,50.10
2023-02-17T00:09:25.642Z,51.40
2023-02-17T00:11:29.494Z,50.15
2023-02-17T00:13:32.734Z,51.28
2023-02-17T00:15:35.912Z,50.53
2023-02-17T00:17:39.383Z,51.33
2023-02-17T00:19:42.724Z,51.78
2023-02-17T00:21:45.853Z,50.75
2023-02-17T00:23:50.166Z,51.22
2023-02-17T00:25:54.823Z,51.28
2023-02-17T00:27:57.996Z,49.67
2023-02-17T00:30:01.242Z,51.65
2023-02-17T00:32:05.011Z,51.55
2023-02-17T00:34:08.353Z,51.35
2023-02-17T00:36:14.598Z,52.08
2023-02-17T00:38:17.831Z,53.55
2023-02-17T00:40:21.183Z,51.65
2023-02-17T00:42:25.737Z,51.83
2023-02-17T00:44:29.106Z,52.05
2023-02-17T00:46:32.889Z,51.58
2023-02-17T00:48:36.805Z,52.78
2023-02-17T00:50:41.114Z,51.67
2023-02-17T00:52:44.664Z,51.35
2023-02-17T00:54:48.410Z,52.00
2023-02-17T00:56:51.851Z,52.03
2023-02-17T00:58:56.604Z,53.03
2023-02-17T01:01:00.349Z,52.55
2023-02-17T01:03:03.811Z,52.13
2023-02-17T01:05:08.370Z,50.58
2023-02-17T01:07:11.789Z,49.83
2023-02-17T01:09:16.674Z,50.08
2023-02-17T01:11:20.654Z,51.13
2023-02-17T01:13:24.086Z,49.10
2023-02-17T01:15:28.780Z,49.90
2023-02-17T01:17:32.448Z,49.30
2023-02-17T01:19:35.858Z,47.50
2023-02-17T01:21:39.348Z,47.92
2023-02-17T01:23:47.226Z,47.80
2023-02-17T01:25:51.589Z,47.58
2023-02-17T01:27:55.681Z,47.03
2023-02-17T01:29:59.166Z,46.30
2023-02-17T01:32:05.301Z,46.28
2023-02-17T01:34:08.827Z,46.42
2023-02-17T01:36:15.641Z,44.78
2023-02-17T01:38:19.035Z,44.53
2023-02-17T01:40:22.503Z,43.88
2023-02-17T01:42:26.210Z,44.47
2023-02-17T01:44:33.898Z,44.85
2023-02-17T01:46:38.505Z,43.38
2023-02-17T01:48:48.364Z,45.08
2023-02-17T01:50:55.255Z,42.90
2023-02-17T01:53:01.887Z,42.70
2023-02-17T01:55:09.374Z,41.80
2023-02-17T01:57:14.508Z,42.72
2023-02-17T01:59:20.023Z,42.63
2023-02-17T02:01:25.226Z,42.20
2023-02-17T02:03:31.459Z,41.95
2023-02-17T02:05:37.688Z,42.22
2023-02-17T02:07:44.867Z,42.75
2023-02-17T02:09:53.250Z,40.53
2023-02-17T02:11:56.701Z,42.58
2023-02-17T02:14:00.738Z,41.45
2023-02-17T02:16:12.761Z,40.42
2023-02-17T02:18:31.621Z,39.35
2023-02-17T02:21:05.099Z,39.45
2023-02-17T02:23:39.801Z,38.95
2023-02-17T02:26:09.743Z,37.45
2023-02-17T02:28:25.770Z,37.83
2023-02-17T02:31:11.461Z,36.55
2023-02-17T02:33:24.990Z,35.60
2023-02-17T02:35:35.149Z,35.53
2023-02-17T02:37:44.248Z,34.92
2023-02-17T02:39:50.280Z,35.17
2023-02-17T02:41:56.832Z,34.72
2023-02-17T02:44:04.934Z,34.80
2023-02-17T02:46:10.247Z,33.55
2023-02-17T02:48:14.350Z,34.10
2023-02-17T02:50:23.754Z,34.00
2023-02-17T02:52:38.420Z,33.20
2023-02-17T02:54:53.991Z,33.53
2023-02-17T02:57:13.421Z,31.95
2023-02-17T02:59:28.231Z,32.15
2023-02-17T03:01:39.348Z,31.48
2023-02-17T03:03:50.122Z,30.13
2023-02-17T03:05:59.633Z,30.60
2023-02-17T03:08:09.865Z,29.48
2023-02-17T03:10:15.633Z,30.05
2023-02-17T03:12:20.442Z,29.55
2023-02-17T03:14:24.829Z,29.67
2023-02-17T03:16:28.376Z,29.10
2023-02-17T03:18:33.616Z,28.90
2023-02-17T03:20:39.962Z,28.73
2023-02-17T03:22:48.284Z,28.35
2023-02-17T03:24:52.548Z,27.88
2023-02-17T03:26:56.164Z,25.35
2023-02-17T03:28:59.581Z,26.77
2023-02-17T03:31:03.091Z,27.02
2023-02-17T03:33:06.470Z,26.60
2023-02-17T03:35:10.741Z,25.38
2023-02-17T03:37:14.169Z,26.38
2023-02-17T03:39:19.002Z,25.83
2023-02-17T03:41:22.368Z,25.92
2023-02-17T03:43:25.734Z,25.85
2023-02-17T03:45:29.165Z,25.58
2023-02-17T03:47:32.837Z,26.05
2023-02-17T03:49:36.309Z,26.98
2023-02-17T03:51:40.135Z,26.40
2023-02-17T03:53:44.726Z,25.50
2023-02-17T03:55:53.722Z,26.27
2023-02-17T03:57:57.170Z,25.58
2023-02-17T04:00:00.586Z,26.52
2023-02-17T04:02:04.737Z,25.30
2023-02-17T04:04:08.145Z,25.02
2023-02-17T04:06:12.585Z,23.58
2023-02-17T04:08:16.158Z,23.02
2023-02-17T04:10:19.943Z,23.75
2023-02-17T04:12:24.699Z,23.23
2023-02-17T04:14:28.202Z,23.70
2023-02-17T04:16:31.608Z,22.95
2023-02-17T04:18:35.775Z,22.23
2023-02-17T04:20:39.193Z,23.55
2023-02-17T04:22:42.505Z,23.08
2023-02-17T04:24:45.910Z,22.45
2023-02-17T04:26:49.297Z,23.50
2023-02-17T04:28:54.290Z,22.52
2023-02-17T04:30:59.581Z,23.55
2023-02-17T04:33:03.782Z,22.35
2023-02-17T04:35:07.989Z,22.55
2023-02-17T04:37:11.394Z,23.70
2023-02-17T04:39:14.846Z,22.67
2023-02-17T04:41:18.182Z,23.95
2023-02-17T04:43:21.664Z,22.75
2023-02-17T04:45:26.841Z,24.45
2023-02-17T04:47:30.260Z,23.45
2023-02-17T04:49:33.787Z,24.92
2023-02-17T04:51:37.271Z,25.48
2023-02-17T04:53:40.612Z,25.13
2023-02-17T04:55:44.145Z,24.88
2023-02-17T04:57:47.580Z,24.83
2023-02-17T04:59:50.949Z,25.13
2023-02-17T05:01:55.749Z,25.10
2023-02-17T05:03:59.160Z,24.55
2023-02-17T05:06:02.596Z,25.00
2023-02-17T05:08:06.354Z,24.88
2023-02-17T05:10:10.601Z,25.48
2023-02-17T05:12:14.177Z,26.30
2023-02-17T05:14:17.595Z,25.02
2023-02-17T05:16:21.123Z,26.10
2023-02-17T05:18:25.996Z,25.02
2023-02-17T05:20:29.836Z,26.55
2023-02-17T05:22:33.598Z,27.08
2023-02-17T05:24:38.800Z,26.33
2023-02-17T05:26:42.716Z,26.13
2023-02-17T05:28:46.416Z,25.75
2023-02-17T05:30:50.254Z,26.92
2023-02-17T05:32:53.818Z,28.33
2023-02-17T05:34:58.644Z,28.70
2023-02-17T05:37:02.065Z,30.17
2023-02-17T05:39:05.604Z,29.33
2023-02-17T05:41:09.487Z,29.20
2023-02-17T05:43:12.887Z,28.80
2023-02-17T05:45:16.252Z,29.05
2023-02-17T05:47:19.648Z,29.48
2023-02-17T05:49:23.106Z,29.15
2023-02-17T05:51:27.866Z,28.63
2023-02-17T05:53:31.316Z,28.38
2023-02-17T05:55:34.674Z,28.95
2023-02-17T05:57:38.083Z,30.17
2023-02-17T05:59:41.494Z,28.83
2023-02-17T06:01:44.996Z,29.90
2023-02-17T06:03:48.485Z,30.70
2023-02-17T06:05:52.006Z,30.77
2023-02-17T06:07:56.798Z,31.80
2023-02-17T06:10:00.240Z,30.45
2023-02-17T06:12:03.698Z,31.52
2023-02-17T06:14:07.103Z,32.33
2023-02-17T06:16:10.641Z,31.40
2023-02-17T06:18:14.542Z,33.28
2023-02-17T06:20:18.096Z,32.30
2023-02-17T06:22:21.596Z,32.38
2023-02-17T06:24:26.504Z,33.45
2023-02-17T06:26:30.179Z,32.72
2023-02-17T06:28:35.082Z,33.72
2023-02-17T06:30:38.743Z,31.80
2023-02-17T06:32:42.188Z,32.42
2023-02-17T06:34:45.597Z,33.65
2023-02-17T06:36:49.006Z,33.97
2023-02-17T06:38:52.483Z,33.25
2023-02-17T06:40:57.364Z,33.30
2023-02-17T06:43:00.760Z,35.20
2023-02-17T06:45:06.173Z,34.80
2023-02-17T06:47:09.952Z,36.63
2023-02-17T06:49:13.397Z,37.17
2023-02-17T06:51:16.956Z,37.50
2023-02-17T06:53:20.458Z,37.88
2023-02-17T06:55:23.929Z,38.45
2023-02-17T06:57:28.934Z,38.38
2023-02-17T06:59:33.500Z,39.08
2023-02-17T07:01:36.902Z,38.80
2023-02-17T07:03:40.297Z,36.53
2023-02-17T07:05:44.022Z,37.15
2023-02-17T07:07:47.436Z,37.90
2023-02-17T07:09:50.823Z,37.75
2023-02-17T07:11:54.236Z,36.75
2023-02-17T07:13:59.152Z,36.63
2023-02-17T07:16:02.650Z,36.58
2023-02-17T07:18:06.309Z,36.85
2023-02-17T07:20:10.759Z,37.35
2023-02-17T07:22:14.251Z,38.75
2023-02-17T07:24:17.837Z,37.22
2023-02-17T07:26:21.233Z,35.85
2023-02-17T07:28:24.730Z,36.60
2023-02-17T07:30:29.723Z,37.47
2023-02-17T07:32:33.644Z,36.85
2023-02-17T07:34:38.836Z,36.38
2023-02-17T07:36:42.366Z,37.03
2023-02-17T07:38:45.937Z,34.95
2023-02-17T07:40:49.403Z,35.72
2023-02-17T07:42:52.941Z,36.33
2023-02-17T07:44:56.336Z,36.53
2023-02-17T07:47:01.268Z,35.08
2023-02-17T07:49:04.674Z,37.45
2023-02-17T07:51:10.382Z,36.45
2023-02-17T07:53:13.803Z,36.60
2023-02-17T07:55:17.406Z,33.55
2023-02-17T07:57:20.786Z,29.42
2023-02-17T07:59:24.309Z,30.30
2023-02-17T08:01:27.717Z,30.50
2023-02-17T08:03:32.517Z,29.17
2023-02-17T08:05:35.996Z,29.77
2023-02-17T08:07:39.429Z,27.73
2023-02-17T08:10:00.222Z,27.98
2023-02-17T08:12:21.203Z,28.60
2023-02-17T08:14:26.534Z,27.85
2023-02-17T08:16:30.103Z,27.40
2023-02-17T08:18:36.767Z,26.77
2023-02-17T08:20:40.418Z,26.13
2023-02-17T08:22:43.797Z,26.98
2023-02-17T08:24:47.676Z,26.30
2023-02-17T08:26:51.100Z,28.00
2023-02-17T08:28:54.533Z,28.67
2023-02-17T08:30:58.407Z,26.42
2023-02-17T08:33:02.052Z,25.80
2023-02-17T08:35:07.924Z,25.05
2023-02-17T08:37:12.790Z,22.38
2023-02-17T08:39:18.581Z,21.38
2023-02-17T08:41:25.129Z,21.85
2023-02-17T08:43:28.580Z,19.48
2023-02-17T08:45:32.051Z,20.15
2023-02-17T08:47:35.972Z,21.08
2023-02-17T08:49:39.520Z,21.55
2023-02-17T08:51:44.812Z,23.05
2023-02-17T08:53:48.318Z,21.63
2023-02-17T08:55:51.766Z,21.83
2023-02-17T08:57:55.385Z,20.52
2023-02-17T08:59:58.880Z,19.60
2023-02-17T09:02:02.309Z,17.85
2023-02-17T09:04:07.941Z,19.08
2023-02-17T09:06:11.432Z,18.52
2023-02-17T09:08:16.600Z,18.95
2023-02-17T09:10:20.242Z,18.45
2023-02-17T09:12:23.710Z,18.20
2023-02-17T09:14:27.699Z,19.02
2023-02-17T09:16:31.173Z,18.75
2023-02-17T09:18:34.714Z,18.50
2023-02-17T09:20:39.599Z,19.52
2023-02-17T09:22:43.145Z,19.83
2023-02-17T09:24:47.967Z,20.98
2023-02-17T09:26:51.396Z,22.83
2023-02-17T09:28:54.887Z,22.77
2023-02-17T09:30:58.324Z,23.95
2023-02-17T09:33:02.070Z,24.52
2023-02-17T09:35:07.041Z,24.33
2023-02-17T09:37:12.858Z,23.75
2023-02-17T09:39:16.399Z,23.50
2023-02-17T09:41:24.800Z,23.58
2023-02-17T09:43:31.600Z,23.60
2023-02-17T09:45:37.535Z,23.00
2023-02-17T09:47:46.331Z,22.45
2023-02-17T09:49:56.079Z,22.30
2023-02-17T09:52:06.984Z,22.08
2023-02-17T09:54:17.414Z,21.17
2023-02-17T09:56:32.583Z,23.15
2023-02-17T09:58:42.227Z,23.58
2023-02-17T10:00:48.201Z,22.58
2023-02-17T10:02:59.705Z,23.67
2023-02-17T10:07:16.159Z,23.50
2023-02-17T10:09:24.476Z,24.27
2023-02-17T10:11:34.182Z,25.15
2023-02-17T10:13:39.284Z,22.88
2023-02-17T10:15:47.957Z,23.65
2023-02-17T10:17:58.556Z,24.13
2023-02-17T10:20:06.212Z,23.83
2023-02-17T10:22:15.370Z,24.50
2023-02-17T10:24:18.915Z,24.45
2023-02-17T10:26:44.246Z,25.42
2023-02-17T10:28:54.038Z,27.98
2023-02-17T10:31:04.649Z,30.60
2023-02-17T10:33:15.581Z,28.98
2023-02-17T10:35:24.148Z,28.90
2023-02-17T10:37:34.358Z,30.52
2023-02-17T10:39:49.209Z,31.38
2023-02-17T10:41:56.306Z,29.90
2023-02-17T10:44:02.384Z,28.95
2023-02-17T10:46:09.023Z,27.10
2023-02-17T10:48:17.478Z,26.15
2023-02-17T10:50:24.260Z,26.83
2023-02-17T10:52:37.674Z,25.25
2023-02-17T10:54:46.666Z,23.17
2023-02-17T10:56:55.123Z,22.30
2023-02-17T10:59:07.526Z,22.10
2023-02-17T11:01:12.098Z,21.42
2023-02-17T11:03:21.851Z,19.73
2023-02-17T11:05:27.327Z,18.03
2023-02-17T11:07:35.648Z,18.23
2023-02-17T11:09:46.532Z,17.98
2023-02-17T11:11:54.492Z,19.38
2023-02-17T11:14:12.093Z,19.08
2023-02-17T11:16:26.495Z,19.08
2023-02-17T11:18:34.189Z,19.80
2023-02-17T11:20:42.401Z,19.17
2023-02-17T11:22:48.083Z,21.02
2023-02-17T11:24:59.438Z,22.33
2023-02-17T11:27:05.984Z,22.65
2023-02-17T11:29:12.581Z,22.83
2023-02-17T11:31:25.206Z,21.58
2023-02-17T11:33:33.689Z,22.48
2023-02-17T11:35:49.401Z,22.48
2023-02-17T11:37:53.936Z,21.60
2023-02-17T11:39:57.445Z,22.75
2023-02-17T11:42:00.931Z,21.45
2023-02-17T11:44:04.372Z,21.73
2023-02-17T11:46:22.978Z,22.05
2023-02-17T11:48:44.022Z,21.00
2023-02-17T11:50:55.172Z,22.02
2023-02-17T11:53:14.464Z,22.00
2023-02-17T11:55:23.850Z,21.55
2023-02-17T11:57:38.267Z,20.52
2023-02-17T11:59:57.695Z,20.50
2023-02-17T12:02:20.285Z,20.05
2023-02-17T12:04:28.040Z,22.25
2023-02-17T12:06:39.952Z,20.95
2023-02-17T12:09:04.954Z,21.77
2023-02-17T12:11:18.267Z,23.42
2023-02-17T12:13:35.815Z,21.52
2023-02-17T12:15:57.102Z,21.85
2023-02-17T12:18:17.446Z,20.80
2023-02-17T12:20:40.769Z,21.42
2023-02-17T12:22:50.903Z,20.88
2023-02-17T12:25:04.738Z,21.92
2023-02-17T12:27:19.997Z,20.60
2023-02-17T12:29:41.670Z,19.77
2023-02-17T12:34:04.348Z,17.98
2023-02-17T12:36:12.360Z,17.58
2023-02-17T12:38:19.018Z,17.60
2023-02-17T12:40:33.963Z,16.95
2023-02-17T12:42:41.858Z,17.33
2023-02-17T12:44:48.687Z,16.10
2023-02-17T12:46:55.224Z,15.90
2023-02-17T12:49:07.501Z,14.93
2023-02-17T12:51:16.529Z,14.90
2023-02-17T12:53:26.750Z,15.23
2023-02-17T12:55:37.866Z,13.98
2023-02-17T12:57:48.685Z,13.80
2023-02-17T12:59:54.173Z,12.67
2023-02-17T13:02:02.042Z,12.80
2023-02-17T13:04:08.090Z,12.55
2023-02-17T13:06:26.126Z,10.65
2023-02-17T13:08:37.794Z,11.60
2023-02-17T13:10:42.396Z,11.00
2023-02-17T13:12:57.573Z,11.15
2023-02-17T13:15:02.799Z,11.00
2023-02-17T13:17:07.033Z,10.93
2023-02-17T13:19:11.908Z,10.63
2023-02-17T13:21:27.827Z,10.93
2023-02-17T13:23:36.124Z,11.15
2023-02-17T13:25:39.752Z,10.75
2023-02-17T13:27:43.199Z,11.35
2023-02-17T13:29:46.694Z,11.27
2023-02-17T13:31:53.474Z,11.35
2023-02-17T13:33:58.675Z,11.85
2023-02-17T13:36:13.857Z,11.43
2023-02-17T13:38:27.620Z,11.13
2023-02-17T13:40:37.701Z,11.35
2023-02-17T13:42:44.116Z,10.38
2023-02-17T13:44:49.157Z,10.30
2023-02-17T13:46:53.531Z,9.90
2023-02-17T13:49:02.034Z,10.68
2023-02-17T13:51:09.897Z,10.30
2023-02-17T13:53:27.328Z,10.77
2023-02-17T13:55:30.924Z,9.57
2023-02-17T13:57:36.205Z,9.07
2023-02-17T13:59:40.224Z,9.45
2023-02-17T14:01:44.546Z,8.48
2023-02-17T14:03:50.803Z,8.63
2023-02-17T14:05:55.782Z,7.72
2023-02-17T14:08:04.989Z,8.05
2023-02-17T14:10:19.548Z,7.13
2023-02-17T14:12:24.850Z,8.13
2023-02-17T14:14:32.395Z,5.53
2023-02-17T14:16:37.190Z,4.05
2023-02-17T14:18:43.090Z,3.85
2023-02-17T14:20:46.468Z,4.13
2023-02-17T14:23:04.532Z,4.30
2023-02-17T14:25:12.408Z,3.80
2023-02-17T14:27:15.841Z,3.90
2023-02-17T14:29:19.401Z,2.42
2023-02-17T14:31:23.791Z,2.72
2023-02-17T14:33:27.308Z,2.38
2023-02-17T14:35:32.873Z,2.90
2023-02-17T14:37:37.429Z,2.78
2023-02-17T14:39:42.385Z,3.13
2023-02-17T14:41:45.866Z,2.53
2023-02-17T14:43:49.345Z,3.20
2023-02-17T14:45:53.276Z,3.30
2023-02-17T14:47:57.763Z,3.03
2023-02-17T14:50:01.265Z,3.03
2023-02-17T14:52:19.693Z,2.72
2023-02-17T14:54:26.175Z,3.00
2023-02-17T14:56:35.255Z,4.13
2023-02-17T14:58:38.823Z,3.30
2023-02-17T15:00:42.324Z,3.65
2023-02-17T15:02:45.842Z,3.35
2023-02-17T15:04:49.352Z,3.60
2023-02-17T15:06:54.708Z,4.05
2023-02-17T15:08:58.358Z,3.90
2023-02-17T15:11:02.310Z,3.53
2023-02-17T15:13:07.401Z,3.60
2023-02-17T15:15:14.868Z,4.55
2023-02-17T15:17:18.285Z,3.85
2023-02-17T15:19:21.717Z,4.03
2023-02-17T15:21:28.932Z,4.00
2023-02-17T15:23:35.511Z,4.45
2023-02-17T15:25:38.942Z,4.60
2023-02-17T15:27:42.662Z,3.83
2023-02-17T15:29:48.203Z,4.28
2023-02-17T15:31:53.038Z,4.18
2023-02-17T15:33:59.142Z,4.65
2023-02-17T15:36:02.650Z,4.75
2023-02-17T15:38:06.106Z,4.82
2023-02-17T15:40:15.601Z,4.75
2023-02-17T15:42:20.373Z,5.18
2023-02-17T15:44:26.610Z,5.22
2023-02-17T15:46:33.719Z,5.55
2023-02-17T15:48:37.201Z,5.47
2023-02-17T15:50:40.631Z,4.78
2023-02-17T15:52:45.773Z,5.35
2023-02-17T15:54:49.726Z,5.38
2023-02-17T15:56:54.660Z,4.93
2023-02-17T15:58:59.652Z,5.45
2023-02-17T16:01:04.716Z,4.93
2023-02-17T16:03:11.413Z,5.10
2023-02-17T16:05:16.692Z,5.15
2023-02-17T16:07:20.129Z,4.88
2023-02-17T16:09:23.572Z,4.25
2023-02-17T16:11:28.508Z,4.90
2023-02-17T16:13:32.193Z,4.47
2023-02-17T16:15:37.603Z,4.20
2023-02-17T16:17:41.157Z,4.22
2023-02-17T16:19:46.013Z,5.35
2023-02-17T16:21:49.474Z,4.68
2023-02-17T16:23:58.995Z,4.82
2023-02-17T16:26:03.408Z,6.47
2023-02-17T16:28:12.212Z,4.82
2023-02-17T16:30:18.711Z,4.75
2023-02-17T16:32:22.337Z,4.65
2023-02-17T16:34:26.217Z,4.57
2023-02-17T16:36:35.254Z,5.03
2023-02-17T16:38:38.727Z,5.68
2023-02-17T16:40:47.447Z,4.68
2023-02-17T16:42:51.137Z,4.95
2023-02-17T16:44:54.915Z,5.00
2023-02-17T16:47:00.893Z,4.30
2023-02-17T16:49:20.601Z,5.20
2023-02-17T16:51:24.397Z,5.15
2023-02-17T16:53:29.441Z,4.53
2023-02-17T16:55:34.494Z,5.35
2023-02-17T16:57:39.570Z,4.68
2023-02-17T16:59:45.108Z,4.65
2023-02-17T17:01:53.320Z,5.35
2023-02-17T17:03:58.101Z,4.70
2023-02-17T17:06:17.738Z,5.35
2023-02-17T17:08:22.603Z,5.45
2023-02-17T17:10:30.728Z,4.90
2023-02-17T17:12:34.445Z,4.50
2023-02-17T17:14:37.967Z,4.50
2023-02-17T17:16:43.682Z,5.93
2023-02-17T17:18:47.148Z,4.78
2023-02-17T17:20:51.154Z,5.57
2023-02-17T17:22:54.584Z,4.60
2023-02-17T17:24:58.030Z,5.78
2023-02-17T17:27:02.835Z,4.95
2023-02-17T17:29:07.030Z,4.63
2023-02-17T17:31:11.985Z,5.13
2023-02-17T17:33:17.317Z,5.80
2023-02-17T17:35:21.830Z,4.93
2023-02-17T17:37:25.391Z,5.05
2023-02-17T17:39:28.817Z,4.50
2023-02-17T17:41:32.442Z,4.82
2023-02-17T17:43:37.304Z,5.18
2023-02-17T17:45:40.759Z,4.90
2023-02-17T17:47:44.298Z,4.53
2023-02-17T17:49:48.302Z,5.53
2023-02-17T17:51:52.223Z,4.50
2023-02-17T17:53:56.208Z,5.53
2023-02-17T17:56:00.020Z,5.05
2023-02-17T17:58:03.932Z,4.75
2023-02-17T18:00:11.181Z,5.35
2023-02-17T18:02:18.429Z,4.97
2023-02-17T18:04:21.910Z,5.50
2023-02-17T18:06:28.482Z,5.47
2023-02-17T18:08:31.925Z,4.60
2023-02-17T18:10:35.438Z,5.88
2023-02-17T18:12:40.058Z,5.13
2023-02-17T18:14:45.261Z,5.43
2023-02-17T18:16:50.815Z,5.80
2023-02-17T18:18:55.889Z,5.60
2023-02-17T18:20:59.340Z,4.70
2023-02-17T18:23:02.805Z,5.25
2023-02-17T18:25:07.285Z,4.93
2023-02-17T18:27:10.697Z,4.38
2023-02-17T18:29:14.499Z,5.28
2023-02-17T18:31:19.401Z,5.65
2023-02-17T18:33:24.346Z,5.57
2023-02-17T18:35:27.819Z,5.05
2023-02-17T18:37:31.485Z,5.00
2023-02-17T18:39:34.918Z,4.60
2023-02-17T18:41:38.469Z,5.10
2023-02-17T18:43:41.924Z,4.28
2023-02-17T18:45:49.041Z,5.07
2023-02-17T18:47:52.527Z,5.57
2023-02-17T18:49:57.392Z,5.40
2023-02-17T18:52:00.878Z,5.95
2023-02-17T18:54:05.454Z,4.88
2023-02-17T18:56:12.075Z,4.97
2023-02-17T18:58:15.809Z,5.70
2023-02-17T19:00:19.704Z,5.93
2023-02-17T19:02:23.160Z,6.07
2023-02-17T19:04:26.704Z,6.80
2023-02-17T19:06:34.651Z,6.00
2023-02-17T19:08:38.378Z,5.35
2023-02-17T19:10:41.931Z,5.70
2023-02-17T19:12:45.443Z,7.88
2023-02-17T19:14:53.175Z,6.93
2023-02-17T19:16:56.784Z,5.50
2023-02-17T19:19:01.520Z,6.40
2023-02-17T19:21:05.871Z,6.70
2023-02-17T19:23:10.742Z,6.40
2023-02-17T19:25:14.173Z,5.18
2023-02-17T19:27:17.549Z,6.47
2023-02-17T19:29:22.864Z,6.35
2023-02-17T19:31:26.501Z,5.18
2023-02-17T19:33:30.035Z,5.40
2023-02-17T19:35:33.537Z,5.53
2023-02-17T19:37:37.003Z,6.60
2023-02-17T19:39:41.811Z,5.80
2023-02-17T19:41:45.535Z,6.57
2023-02-17T19:43:50.041Z,5.55
2023-02-17T19:45:54.904Z,5.28
2023-02-17T19:48:02.302Z,5.47
2023-02-17T19:50:07.942Z,5.30
2023-02-17T19:52:12.076Z,5.38
2023-02-17T19:54:15.542Z,5.22
2023-02-17T19:56:23.698Z,5.30
2023-02-17T19:58:27.498Z,5.28
2023-02-17T20:00:31.144Z,4.88
2023-02-17T20:02:34.685Z,5.78
2023-02-17T20:04:38.722Z,4.82
2023-02-17T20:06:44.330Z,5.22
2023-02-17T20:08:48.964Z,5.47
2023-02-17T20:10:52.355Z,5.43
2023-02-17T20:12:59.325Z,5.07
2023-02-17T20:15:03.357Z,5.75
2023-02-17T20:17:07.017Z,5.75
2023-02-17T20:19:11.288Z,4.70
2023-02-17T20:21:16.942Z,5.15
2023-02-17T20:23:20.589Z,5.32
2023-02-17T20:25:24.090Z,5.57
2023-02-17T20:27:27.759Z,5.05
2023-02-17T20:29:35.650Z,5.93
2023-02-17T20:31:40.521Z,4.75
2023-02-17T20:33:44.498Z,5.22
2023-02-17T20:35:48.747Z,5.53
2023-02-17T20:37:52.549Z,5.40
2023-02-17T20:39:55.970Z,5.75
2023-02-17T20:42:01.625Z,5.22
2023-02-17T20:44:05.612Z,5.28
2023-02-17T20:46:15.102Z,5.47
2023-02-17T20:48:18.683Z,5.53
2023-02-17T20:50:22.981Z,5.50
2023-02-17T20:52:26.775Z,5.32
2023-02-17T20:54:30.193Z,6.05
2023-02-17T20:56:35.627Z,5.53
2023-02-17T20:58:39.194Z,5.50
2023-02-17T21:00:42.846Z,5.63
2023-02-17T21:02:48.270Z,5.90
2023-02-17T21:04:51.976Z,6.28
2023-02-17T21:06:55.639Z,4.88
2023-02-17T21:09:01.545Z,5.20
2023-02-17T21:11:05.054Z,4.90
2023-02-17T21:13:08.568Z,5.07
2023-02-17T21:15:12.443Z,5.57
2023-02-17T21:17:15.875Z,5.00
2023-02-17T21:19:21.272Z,5.38
2023-02-17T21:21:24.799Z,5.60
2023-02-17T21:23:28.223Z,5.70
2023-02-17T21:25:31.698Z,5.20
2023-02-17T21:27:35.586Z,4.95
2023-02-17T21:29:39.041Z,4.97
2023-02-17T21:31:42.648Z,5.05
2023-02-17T21:33:46.386Z,5.05
2023-02-17T21:35:53.529Z,5.78
2023-02-17T21:37:57.025Z,5.30
2023-02-17T21:40:00.569Z,5.13
2023-02-17T21:42:04.167Z,5.53
2023-02-17T21:44:25.449Z,4.75
2023-02-17T21:46:30.309Z,4.90
2023-02-17T21:48:33.710Z,5.55
2023-02-17T21:50:37.289Z,5.18
2023-02-17T21:52:42.204Z,5.68
2023-02-17T21:54:45.621Z,5.70
2023-02-17T21:56:49.019Z,5.18
2023-02-17T21:58:54.751Z,4.78
2023-02-17T22:00:58.344Z,4.97
2023-02-17T22:03:02.078Z,4.78
2023-02-17T22:05:05.926Z,5.30
2023-02-17T22:07:09.395Z,5.03
2023-02-17T22:09:18.061Z,4.93
2023-02-17T22:11:23.356Z,4.65
2023-02-17T22:13:26.800Z,5.43
2023-02-17T22:15:30.261Z,5.03
2023-02-17T22:17:35.532Z,5.32
2023-02-17T22:19:38.976Z,4.75
2023-02-17T22:21:43.182Z,4.05
2023-02-17T22:23:46.713Z,4.95
2023-02-17T22:25:51.604Z,4.88
2023-02-17T22:27:55.058Z,5.18
2023-02-17T22:29:58.769Z,5.63
2023-02-17T22:32:02.349Z,4.22
2023-02-17T22:34:09.889Z,4.82
2023-02-17T22:36:15.398Z,4.22
2023-02-17T22:38:18.855Z,4.82
2023-02-17T22:40:22.318Z,4.55
2023-02-17T22:42:27.423Z,4.97
2023-02-17T22:44:31.332Z,5.03
2023-02-17T22:46:35.424Z,4.78
2023-02-17T22:48:40.192Z,4.50
2023-02-17T22:50:43.727Z,4.90
2023-02-17T22:52:47.217Z,4.95
2023-02-17T22:54:50.852Z,4.93
2023-02-17T22:56:54.278Z,5.20
2023-02-17T22:59:01.094Z,4.57
2023-02-17T23:01:05.997Z,5.68
2023-02-17T23:03:09.434Z,6.03
2023-02-17T23:05:12.999Z,4.68
2023-02-17T23:07:16.426Z,4.93
2023-02-17T23:09:21.013Z,5.13
2023-02-17T23:11:39.937Z,4.50
2023-02-17T23:13:44.696Z,5.10
2023-02-17T23:15:49.933Z,5.07
2023-02-17T23:17:57.691Z,5.68
2023-02-17T23:20:01.083Z,4.32
2023-02-17T23:22:07.174Z,5.55
2023-02-17T23:24:10.579Z,5.00
2023-02-17T23:26:15.381Z,4.65
2023-02-17T23:28:20.110Z,4.03
2023-02-17T23:30:24.410Z,4.65
2023-02-17T23:32:29.331Z,5.75
2023-02-17T23:34:32.724Z,4.18
2023-02-17T23:36:39.225Z,6.03
2023-02-17T23:38:42.698Z,4.90
2023-02-17T23:40:49.571Z,4.80
2023-02-17T23:42:53.224Z,4.22
2023-02-17T23:44:56.618Z,4.50
2023-02-17T23:47:00.075Z,5.03
2023-02-17T23:49:06.197Z,4.45
2023-02-17T23:51:09.738Z,5.00
2023-02-17T23:53:13.172Z,5.00
2023-02-17T23:55:16.934Z,4.32
2023-02-17T23:57:20.459Z,5.10
2023-02-17T23:59:24.305Z,4.55
